Time;durP1;ratioP1;P1;durP2;ratioP2;P2;SDS_P1;SDS_P2;PMS_P1;PMS_P2;Temp;Humidity;BMP_temperature;BMP_pressure;BME280_temperature;BME280_humidity;BME280_pressure;Samples;Min_cycle;Max_cycle;Signal;HPM_P1;HPM_P2
2022/06/03 00:00:46;;;;;;;5.45;4.93;;;13.70;99.90;;;;;;5034069;28;20021;-70
2022/06/03 00:03:14;;;;;;;6.18;5.20;;;13.70;99.90;;;;;;5034463;28;20026;-70
2022/06/03 00:06:25;;;;;;;7.13;4.95;;;13.60;99.90;;;;;;5034415;28;20024;-70
2022/06/03 00:09:21;;;;;;;5.10;4.60;;;13.60;99.90;;;;;;5018143;28;20033;-70
2022/06/03 00:12:08;;;;;;;7.05;4.70;;;13.60;99.90;;;;;;5033907;28;20025;-70
2022/06/03 00:15:08;;;;;;;8.25;5.15;;;13.50;99.90;;;;;;5034081;28;20021;-70
2022/06/03 00:17:43;;;;;;;10.05;5.13;;;13.50;99.90;;;;;;5034011;28;20038;-70
2022/06/03 00:20:17;;;;;;;6.65;4.80;;;13.40;99.90;;;;;;5033963;28;20047;-70
2022/06/03 00:22:57;;;;;;;5.93;4.72;;;13.40;99.90;;;;;;5033959;28;20118;-70
2022/06/03 00:25:44;;;;;;;7.18;4.90;;;13.40;99.90;;;;;;5033965;28;20030;-70
2022/06/03 00:28:42;;;;;;;5.45;4.97;;;13.40;99.90;;;;;;5032960;28;20041;-70
2022/06/03 00:31:19;;;;;;;5.50;4.93;;;13.30;99.90;;;;;;5032203;28;20072;-70
2022/06/03 00:34:15;;;;;;;5.85;5.25;;;13.30;99.90;;;;;;5032733;28;20393;-71
2022/06/03 00:36:53;;;;;;;5.60;5.10;;;13.30;99.90;;;;;;5033804;28;20026;-71
2022/06/03 00:39:38;;;;;;;5.15;4.65;;;13.20;99.90;;;;;;5033999;28;20034;-71
2022/06/03 00:42:33;;;;;;;10.90;5.68;;;13.20;99.90;;;;;;5034170;28;20033;-71
2022/06/03 00:45:36;;;;;;;7.43;4.90;;;13.20;99.90;;;;;;5032193;28;20036;-71
2022/06/03 00:48:20;;;;;;;6.45;5.47;;;13.20;99.90;;;;;;5033743;28;20171;-70
2022/06/03 00:51:05;;;;;;;5.75;5.07;;;13.10;99.90;;;;;;5033797;28;20330;-71
2022/06/03 00:53:40;;;;;;;5.35;4.85;;;13.10;99.90;;;;;;5033648;28;20538;-71
2022/06/03 00:56:12;;;;;;;5.93;5.07;;;13.00;99.90;;;;;;5033568;28;20021;-70
2022/06/03 00:58:57;;;;;;;6.50;5.13;;;13.00;99.90;;;;;;5032251;28;20037;-71
2022/06/03 01:01:34;;;;;;;5.97;4.72;;;13.00;99.90;;;;;;5033823;28;20018;-70
2022/06/03 01:04:30;;;;;;;5.78;5.28;;;13.00;99.90;;;;;;5033878;28;20044;-71
2022/06/03 01:06:59;;;;;;;5.53;5.03;;;13.00;99.90;;;;;;5033506;28;20034;-71
2022/06/03 01:10:02;;;;;;;6.03;5.28;;;12.90;99.90;;;;;;5033396;28;20087;-71
2022/06/03 01:12:55;;;;;;;6.07;5.00;;;12.90;99.90;;;;;;5032501;28;20037;-70
2022/06/03 01:15:24;;;;;;;7.47;5.10;;;13.00;99.90;;;;;;5032181;28;20121;-71
2022/06/03 01:18:05;;;;;;;6.30;5.13;;;13.00;99.90;;;;;;5033378;28;20104;-71
2022/06/03 01:20:47;;;;;;;6.78;5.07;;;13.00;99.90;;;;;;5033145;28;20366;-71
2022/06/03 01:23:39;;;;;;;7.35;5.55;;;13.00;99.90;;;;;;5033500;28;20484;-71
2022/06/03 01:26:30;;;;;;;6.35;5.80;;;12.90;99.90;;;;;;5012181;28;20049;-70
2022/06/03 01:29:20;;;;;;;5.35;4.38;;;13.00;99.90;;;;;;5033202;28;20040;-71
2022/06/03 01:32:23;;;;;;;7.32;4.82;;;13.00;99.90;;;;;;5033926;28;20045;-70
2022/06/03 01:34:54;;;;;;;5.55;4.63;;;13.00;99.90;;;;;;5033199;28;20092;-71
2022/06/03 01:37:33;;;;;;;5.35;4.90;;;13.00;99.90;;;;;;5031928;28;20029;-71
2022/06/03 01:40:02;;;;;;;;;;;12.90;99.90;;;;;;5035338;28;20026;-71
2022/06/03 01:42:59;;;;;;;5.53;4.88;;;12.90;99.90;;;;;;5036532;28;19912;-71
2022/06/03 01:46:02;;;;;;;7.43;5.40;;;12.80;99.90;;;;;;5036872;28;20030;-71
2022/06/03 01:48:37;;;;;;;4.97;4.53;;;12.80;99.90;;;;;;5035266;28;20041;-71
2022/06/03 01:51:23;;;;;;;6.07;4.35;;;12.80;99.90;;;;;;5035413;28;20033;-71
2022/06/03 01:54:04;;;;;;;5.15;4.65;;;12.70;99.90;;;;;;5036629;28;20029;-70
2022/06/03 01:56:44;;;;;;;5.07;4.60;;;12.70;99.90;;;;;;5035804;28;20021;-71
2022/06/03 01:59:37;;;;;;;6.10;4.13;;;12.70;99.90;;;;;;5036872;28;20112;-70
2022/06/03 02:02:15;;;;;;;8.45;4.70;;;12.70;99.90;;;;;;5036855;28;20033;-70
2022/06/03 02:04:46;;;;;;;5.30;4.20;;;12.60;99.90;;;;;;5036356;28;20048;-70
2022/06/03 02:07:15;;;;;;;7.18;5.55;;;12.60;99.90;;;;;;5035669;28;20427;-70
2022/06/03 02:10:19;;;;;;;5.45;4.75;;;12.60;99.90;;;;;;5036310;28;20037;-70
2022/06/03 02:13:02;;;;;;;4.85;4.40;;;12.60;99.90;;;;;;5036002;28;20037;-70
2022/06/03 02:15:48;;;;;;;5.45;4.57;;;12.50;99.90;;;;;;5036279;28;20036;-70
2022/06/03 02:18:48;;;;;;;5.78;4.15;;;12.50;99.90;;;;;;5035964;28;20079;-70
2022/06/03 02:22:02;;;;;;;5.75;4.45;;;12.40;99.90;;;;;;5034961;28;20457;-70
2022/06/03 02:24:33;;;;;;;5.30;3.72;;;12.40;99.90;;;;;;5021898;28;20040;-71
2022/06/03 02:27:20;;;;;;;6.53;4.40;;;12.40;99.90;;;;;;5035810;28;20103;-70
2022/06/03 02:33:27;;;;;;;5.18;4.65;;;12.40;99.90;;;;;;5036055;28;20040;-71
2022/06/03 02:36:11;;;;;;;4.43;3.97;;;12.30;99.90;;;;;;5035663;28;20045;-70
2022/06/03 02:38:58;;;;;;;6.07;4.45;;;12.30;99.90;;;;;;5036217;28;20034;-70
2022/06/03 02:41:46;;;;;;;5.00;4.40;;;12.30;99.90;;;;;;5036191;28;20029;-70
2022/06/03 02:44:30;;;;;;;4.38;4.00;;;12.30;99.90;;;;;;5036113;28;20029;-71
2022/06/03 02:47:33;;;;;;;4.20;3.78;;;12.30;99.90;;;;;;5035717;28;20025;-71
2022/06/03 02:50:13;;;;;;;4.25;3.90;;;12.20;99.90;;;;;;5034335;28;20034;-70
2022/06/03 02:53:25;;;;;;;5.28;3.92;;;12.20;99.90;;;;;;5035042;28;20021;-71
2022/06/03 02:56:09;;;;;;;6.68;4.00;;;12.20;99.90;;;;;;5035617;28;20039;-70
2022/06/03 02:59:03;;;;;;;11.88;4.45;;;12.20;99.90;;;;;;5034268;28;20029;-70
2022/06/03 03:02:02;;;;;;;3.95;3.58;;;12.30;99.90;;;;;;5035551;28;20018;-71
2022/06/03 03:05:07;;;;;;;7.00;3.83;;;12.30;99.90;;;;;;5034107;28;20496;-70
2022/06/03 03:07:52;;;;;;;8.23;3.97;;;12.30;99.90;;;;;;4998423;28;20047;-71
2022/06/03 03:10:29;;;;;;;7.03;3.20;;;12.20;99.90;;;;;;5035254;28;20022;-70
2022/06/03 03:13:10;;;;;;;5.95;4.20;;;12.20;99.90;;;;;;5035397;28;20469;-71
2022/06/03 03:15:54;;;;;;;7.38;4.07;;;12.10;99.90;;;;;;5033854;28;20025;-71
2022/06/03 03:18:22;;;;;;;4.13;3.75;;;12.10;99.90;;;;;;5034795;28;20393;-71
2022/06/03 03:21:15;;;;;;;4.73;4.20;;;12.10;99.90;;;;;;5035034;28;20026;-71
2022/06/03 03:23:59;;;;;;;5.90;4.22;;;12.20;99.90;;;;;;5050936;28;20083;-71
2022/06/03 03:26:38;;;;;;;4.93;4.50;;;12.10;99.90;;;;;;5034928;28;20032;-71
2022/06/03 03:29:05;;;;;;;11.25;4.30;;;12.10;99.90;;;;;;5035038;28;20033;-71
2022/06/03 03:32:12;;;;;;;3.92;3.63;;;12.20;99.90;;;;;;5035346;28;20042;-71
2022/06/03 03:35:08;;;;;;;4.63;3.72;;;12.20;99.90;;;;;;5035303;28;20047;-71
2022/06/03 03:37:47;;;;;;;6.65;4.93;;;12.20;99.90;;;;;;5034457;28;20030;-71
2022/06/03 03:40:31;;;;;;;;;;;12.20;99.90;;;;;;5033811;28;20037;-71
2022/06/03 03:43:34;;;;;;;4.10;3.38;;;12.20;99.90;;;;;;5034564;28;19928;-71
2022/06/03 03:46:27;;;;;;;6.80;3.65;;;12.10;99.90;;;;;;5034539;28;20076;-71
2022/06/03 03:49:15;;;;;;;3.95;3.63;;;12.20;99.90;;;;;;5033127;28;20116;-71
2022/06/03 03:52:10;;;;;;;8.13;3.90;;;12.20;99.90;;;;;;5034425;28;20060;-71
2022/06/03 03:55:00;;;;;;;4.93;4.43;;;12.20;99.90;;;;;;5034436;28;20045;-71
2022/06/03 03:57:58;;;;;;;5.65;4.18;;;12.30;99.90;;;;;;5034389;28;20022;-70
2022/06/03 04:01:03;;;;;;;5.82;4.20;;;12.40;99.90;;;;;;5020372;28;20482;-71
2022/06/03 04:03:40;;;;;;;6.65;4.10;;;12.40;99.90;;;;;;5033868;28;20026;-70
2022/06/03 04:06:25;;;;;;;3.97;3.58;;;12.50;99.90;;;;;;5033707;28;20025;-71
2022/06/03 04:09:05;;;;;;;5.80;4.00;;;12.60;99.90;;;;;;5033614;28;20048;-72
2022/06/03 04:12:12;;;;;;;4.45;3.75;;;12.70;99.90;;;;;;5034020;28;20056;-71
2022/06/03 04:15:01;;;;;;;4.10;3.80;;;12.70;99.90;;;;;;5034055;28;20026;-71
2022/06/03 04:18:09;;;;;;;4.25;3.55;;;12.80;99.90;;;;;;5034017;28;20112;-70
2022/06/03 04:20:54;;;;;;;;;;;12.90;99.90;;;;;;5033228;28;20033;-70
2022/06/03 04:23:59;;;;;;;4.68;3.25;;;13.00;99.90;;;;;;5033591;28;19909;-70
2022/06/03 04:26:50;;;;;;;6.07;3.90;;;13.10;99.90;;;;;;5032750;28;20044;-70
2022/06/03 04:29:41;;;;;;;4.75;3.80;;;13.30;99.90;;;;;;5033726;28;20156;-71
2022/06/03 04:32:31;;;;;;;7.07;3.67;;;13.40;99.90;;;;;;5013111;28;20081;-70
2022/06/03 04:35:29;;;;;;;4.35;3.50;;;13.50;99.90;;;;;;5032419;28;20022;-70
2022/06/03 04:38:23;;;;;;;6.00;3.60;;;13.70;99.90;;;;;;5034109;28;20029;-70
2022/06/03 04:40:51;;;;;;;3.42;3.20;;;13.70;99.90;;;;;;5033715;28;20030;-72
2022/06/03 04:43:54;;;;;;;5.23;3.67;;;13.80;99.90;;;;;;5033400;28;20492;-71
2022/06/03 04:46:53;;;;;;;3.95;3.50;;;13.90;99.90;;;;;;5033550;28;20413;-71
2022/06/03 04:49:42;;;;;;;5.32;2.92;;;14.00;99.90;;;;;;5032501;28;20040;-71
2022/06/03 04:52:35;;;;;;;3.50;3.20;;;14.20;99.90;;;;;;5033955;28;20025;-71
2022/06/03 04:55:48;;;;;;;4.50;3.65;;;14.30;99.90;;;;;;5033480;28;20469;-71
2022/06/03 04:58:29;;;;;;;6.35;3.20;;;14.50;99.90;;;;;;5032609;28;20029;-71
2022/06/03 05:01:32;;;;;;;5.97;3.53;;;14.60;99.90;;;;;;5031919;28;20026;-72
2022/06/03 05:04:19;;;;;;;15.63;5.20;;;14.70;99.90;;;;;;5033190;28;20083;-71
2022/06/03 05:07:22;;;;;;;5.80;4.68;;;14.90;99.90;;;;;;5032013;28;20107;-71
2022/06/03 05:10:45;;;;;;;8.68;5.20;;;15.00;99.90;;;;;;5033359;28;20048;-71
2022/06/03 05:13:48;;;;;;;5.82;4.60;;;15.20;99.90;;;;;;4991626;28;20035;-71
2022/06/03 05:16:53;;;;;;;7.68;4.90;;;15.30;99.90;;;;;;4995335;28;20213;-71
2022/06/03 05:19:31;;;;;;;6.15;3.95;;;15.50;99.90;;;;;;4995358;28;20431;-71
2022/06/03 05:22:13;;;;;;;3.83;3.03;;;15.60;99.90;;;;;;4995478;28;20114;-71
2022/06/03 05:25:05;;;;;;;5.20;3.78;;;15.70;99.90;;;;;;4979509;28;20129;-71
2022/06/03 05:28:12;;;;;;;6.05;3.42;;;15.90;99.90;;;;;;4995426;28;20033;-71
2022/06/03 05:30:58;;;;;;;7.53;4.38;;;16.10;99.90;;;;;;4995180;28;20053;-72
2022/06/03 05:33:42;;;;;;;6.05;3.20;;;16.30;99.90;;;;;;4995261;28;20030;-71
2022/06/03 05:36:28;;;;;;;6.18;3.05;;;15.30;99.90;;;;;;4995125;28;20054;-71
2022/06/03 05:39:28;;;;;;;6.95;3.45;;;16.60;99.90;;;;;;4978836;28;20057;-72
2022/06/03 05:42:28;;;;;;;3.25;2.92;;;16.80;99.90;;;;;;4995069;28;20162;-72
2022/06/03 05:44:57;;;;;;;7.38;2.90;;;17.10;99.90;;;;;;5032086;28;20037;-72
2022/06/03 05:47:44;;;;;;;5.82;2.88;;;17.30;99.90;;;;;;5035374;28;20028;-72
2022/06/03 05:50:32;;;;;;;5.53;2.83;;;17.50;99.90;;;;;;5036239;28;20037;-72
2022/06/03 05:53:27;;;;;;;5.72;2.70;;;17.70;99.90;;;;;;5035577;28;20111;-71
2022/06/03 05:56:31;;;;;;;5.30;2.97;;;17.90;99.90;;;;;;5034766;28;20029;-72
2022/06/03 05:59:03;;;;;;;3.28;2.30;;;18.20;99.90;;;;;;5035177;28;20171;-72
2022/06/03 06:02:07;;;;;;;2.35;1.95;;;18.30;99.90;;;;;;5035212;28;20057;-71
2022/06/03 06:04:35;;;;;;;3.88;2.08;;;18.50;99.90;;;;;;5029674;28;20397;-71
2022/06/03 06:07:16;;;;;;;2.60;2.40;;;18.60;99.90;;;;;;5036575;28;20061;-71
2022/06/03 06:10:29;;;;;;;5.13;2.47;;;18.80;99.90;;;;;;5035220;28;20527;-72
2022/06/03 06:13:42;;;;;;;2.63;2.10;;;19.00;99.90;;;;;;5013266;28;20433;-72
2022/06/03 06:16:31;;;;;;;3.85;2.05;;;19.60;99.90;;;;;;4994624;28;20057;-72
2022/06/03 06:19:04;;;;;;;3.60;2.10;;;20.30;97.50;;;;;;5034038;28;20040;-72
2022/06/03 06:21:42;;;;;;;2.15;1.60;;;20.80;95.20;;;;;;5036370;28;20033;-72
2022/06/03 06:24:27;;;;;;;2.85;1.73;;;21.10;93.30;;;;;;5035998;28;20164;-72
2022/06/03 06:27:30;;;;;;;4.38;1.85;;;21.20;91.40;;;;;;5036240;28;20075;-73
2022/06/03 06:30:11;;;;;;;2.38;1.80;;;21.50;90.40;;;;;;5035794;28;20126;-72
2022/06/03 06:32:37;;;;;;;3.75;1.90;;;21.70;88.20;;;;;;5035948;28;20030;-72
2022/06/03 06:35:41;;;;;;;3.28;2.15;;;21.70;86.60;;;;;;5034420;28;20071;-73
2022/06/03 06:38:17;;;;;;;2.85;2.05;;;21.90;88.30;;;;;;4985202;28;20041;-70
2022/06/03 06:40:58;;;;;;;4.55;1.73;;;22.30;84.70;;;;;;5035797;28;20021;-70
2022/06/03 06:43:29;;;;;;;4.38;1.90;;;22.50;77.80;;;;;;5035881;28;20033;-72
2022/06/03 06:46:22;;;;;;;1.90;1.58;;;22.80;79.40;;;;;;5035852;28;20377;-71
2022/06/03 06:49:25;;;;;;;2.70;2.03;;;22.60;76.30;;;;;;5035805;28;20131;-71
2022/06/03 06:52:19;;;;;;;3.85;1.70;;;22.90;77.20;;;;;;5034543;28;20029;-71
2022/06/03 06:54:47;;;;;;;2.10;1.60;;;23.10;74.10;;;;;;5035324;28;20032;-73
2022/06/03 06:57:27;;;;;;;3.35;1.70;;;23.50;74.40;;;;;;5034994;28;20453;-71
2022/06/03 07:00:07;;;;;;;2.70;1.83;;;23.80;73.80;;;;;;5035537;28;20033;-71
2022/06/03 07:02:44;;;;;;;2.00;1.90;;;23.90;72.30;;;;;;5035236;28;20025;-71
2022/06/03 07:05:13;;;;;;;4.55;1.92;;;24.00;71.50;;;;;;5034933;28;20051;-73
2022/06/03 07:07:50;;;;;;;1.70;1.60;;;24.10;69.30;;;;;;5035193;28;20022;-73
2022/06/03 07:10:29;;;;;;;2.58;1.80;;;23.90;69.80;;;;;;5035184;28;20123;-73
2022/06/03 07:13:06;;;;;;;3.60;1.63;;;23.60;67.80;;;;;;5034418;28;20496;-72
2022/06/03 07:16:00;;;;;;;2.28;1.67;;;23.30;69.30;;;;;;5035358;28;20034;-73
2022/06/03 07:22:16;;;;;;;1.83;1.73;;;23.20;71.60;;;;;;5034796;28;20080;-70
2022/06/03 07:24:46;;;;;;;5.20;1.52;;;23.60;71.50;;;;;;5035074;28;20042;-72
2022/06/03 07:27:20;;;;;;;3.63;1.90;;;23.90;67.90;;;;;;5034726;28;20026;-73
2022/06/03 07:30:22;;;;;;;2.72;1.60;;;24.10;65.60;;;;;;5034279;28;20119;-70
2022/06/03 07:32:55;;;;;;;3.40;2.00;;;24.40;65.40;;;;;;4983799;28;20037;-70
2022/06/03 07:35:23;;;;;;;1.77;1.40;;;24.10;65.50;;;;;;5034788;28;20513;-70
2022/06/03 07:38:01;;;;;;;1.95;1.45;;;24.40;64.80;;;;;;5032878;28;20029;-72
2022/06/03 07:40:48;;;;;;;2.17;1.50;;;25.00;63.90;;;;;;5034569;28;20454;-70
2022/06/03 07:43:27;;;;;;;3.22;1.50;;;24.70;60.30;;;;;;5034229;28;20473;-72
2022/06/03 07:45:58;;;;;;;6.70;1.73;;;25.10;62.00;;;;;;5034774;28;20025;-73
2022/06/03 07:48:27;;;;;;;3.28;1.45;;;25.20;59.80;;;;;;5034065;28;20052;-73
2022/06/03 07:51:11;;;;;;;1.80;1.40;;;25.40;58.20;;;;;;5033964;28;20032;-73
2022/06/03 07:53:43;;;;;;;6.70;1.85;;;25.80;57.10;;;;;;5033303;28;20380;-72
2022/06/03 07:56:10;;;;;;;1.17;1.00;;;25.90;56.00;;;;;;5034067;28;20029;-73
2022/06/03 07:58:39;;;;;;;1.75;1.02;;;26.10;54.00;;;;;;5034208;28;20033;-73
2022/06/03 08:01:19;;;;;;;1.50;1.40;;;26.50;53.60;;;;;;5049529;28;20441;-73
2022/06/03 08:03:46;;;;;;;1.52;1.42;;;26.40;52.20;;;;;;5032861;28;20026;-73
2022/06/03 08:06:13;;;;;;;1.33;0.95;;;25.90;53.00;;;;;;5034095;28;20084;-73
2022/06/03 08:11:33;;;;;;;1.45;1.00;;;26.10;52.70;;;;;;5034232;28;20040;-73
2022/06/03 08:14:00;;;;;;;1.42;1.20;;;26.20;52.20;;;;;;5049381;28;20057;-73
2022/06/03 08:16:36;;;;;;;2.42;1.17;;;26.40;52.60;;;;;;5034053;28;20062;-73
2022/06/03 08:19:14;;;;;;;4.38;1.20;;;26.70;51.10;;;;;;5034102;28;20045;-73
2022/06/03 08:21:46;;;;;;;1.10;1.08;;;26.60;50.00;;;;;;5033825;28;20018;-72
2022/06/03 08:24:19;;;;;;;1.80;1.15;;;26.00;50.10;;;;;;5033640;28;20414;-73
2022/06/03 08:26:49;;;;;;;3.80;1.33;;;26.10;50.40;;;;;;5033932;28;20029;-73
2022/06/03 08:29:51;;;;;;;2.00;0.90;;;26.50;51.00;;;;;;5032467;28;20037;-73
2022/06/03 08:32:22;;;;;;;1.70;1.05;;;26.70;50.00;;;;;;5032395;28;20045;-73
2022/06/03 08:34:50;;;;;;;2.70;1.27;;;27.20;49.70;;;;;;5032940;28;20021;-73
2022/06/03 08:37:21;;;;;;;1.40;1.08;;;27.60;48.50;;;;;;5033848;28;20111;-73
2022/06/03 08:39:48;;;;;;;1.88;0.95;;;28.10;46.90;;;;;;5033777;28;20033;-73
2022/06/03 08:42:36;;;;;;;3.38;1.20;;;28.40;46.40;;;;;;5033267;28;20034;-73
2022/06/03 08:45:10;;;;;;;0.90;0.90;;;28.70;44.90;;;;;;5014229;28;20041;-74
2022/06/03 08:47:50;;;;;;;1.42;0.93;;;28.80;45.10;;;;;;5033970;28;20036;-73
2022/06/03 08:50:34;;;;;;;2.17;1.10;;;28.00;45.90;;;;;;5035822;28;20026;-73
2022/06/03 08:53:26;;;;;;;3.00;0.77;;;28.20;46.90;;;;;;5036422;28;20059;-73
2022/06/03 08:56:13;;;;;;;6.40;2.10;;;28.50;44.30;;;;;;5037650;28;20029;-73
2022/06/03 08:59:17;;;;;;;4.15;1.23;;;28.90;45.30;;;;;;5036402;28;20082;-73
2022/06/03 09:02:04;;;;;;;0.80;0.80;;;29.00;42.30;;;;;;4987080;28;20029;-73
2022/06/03 09:04:46;;;;;;;2.83;1.35;;;29.20;44.20;;;;;;5035995;28;20079;-73
2022/06/03 09:07:26;;;;;;;2.72;1.17;;;29.20;43.50;;;;;;5036261;28;20389;-73
2022/06/03 09:10:05;;;;;;;4.63;1.17;;;28.70;43.60;;;;;;5037452;28;20029;-73
2022/06/03 09:12:31;;;;;;;3.00;0.90;;;28.40;42.80;;;;;;5037697;28;20128;-73
2022/06/03 09:15:02;;;;;;;1.52;1.33;;;29.00;43.60;;;;;;5036228;28;20478;-73
2022/06/03 09:17:46;;;;;;;3.30;1.08;;;29.70;42.20;;;;;;5036394;28;20169;-73
2022/06/03 09:20:17;;;;;;;2.13;0.85;;;29.50;42.00;;;;;;5037396;28;20025;-73
2022/06/03 09:22:45;;;;;;;2.90;1.10;;;29.30;42.50;;;;;;5035991;28;20084;-73
2022/06/03 09:25:14;;;;;;;1.65;0.90;;;28.70;43.40;;;;;;5037177;28;20026;-73
2022/06/03 09:27:41;;;;;;;1.42;0.90;;;28.90;42.70;;;;;;5035717;28;20040;-73
2022/06/03 09:30:09;;;;;;;2.65;1.20;;;29.10;42.60;;;;;;5037090;28;20089;-73
2022/06/03 09:32:44;;;;;;;1.23;0.90;;;28.90;43.80;;;;;;5037064;28;20029;-73
2022/06/03 09:35:15;;;;;;;2.35;0.73;;;29.10;44.40;;;;;;5037140;28;20032;-73
2022/06/03 09:37:44;;;;;;;4.88;1.15;;;28.80;45.30;;;;;;5037056;28;20041;-73
2022/06/03 09:40:16;;;;;;;1.85;0.80;;;29.00;45.40;;;;;;5037177;28;20025;-73
2022/06/03 09:43:01;;;;;;;5.18;1.50;;;29.00;45.10;;;;;;5036807;28;20029;-73
2022/06/03 09:45:28;;;;;;;2.92;1.40;;;28.70;45.70;;;;;;5037036;28;20029;-74
2022/06/03 09:47:55;;;;;;;5.10;2.35;;;29.40;46.00;;;;;;5036719;28;20095;-74
2022/06/03 09:50:23;;;;;;;2.22;1.33;;;30.10;44.80;;;;;;5035779;28;20112;-74
2022/06/03 09:52:49;;;;;;;3.70;1.20;;;29.90;45.10;;;;;;5035010;28;20049;-74
2022/06/03 09:55:40;;;;;;;2.40;1.30;;;29.40;46.10;;;;;;5036754;28;20049;-74
2022/06/03 09:58:10;;;;;;;1.35;1.25;;;29.40;46.30;;;;;;5031263;28;20037;-73
2022/06/03 10:00:42;;;;;;;3.97;1.10;;;29.30;46.40;;;;;;5035115;28;20025;-73
2022/06/03 10:03:09;;;;;;;2.75;1.30;;;29.10;47.20;;;;;;5036527;28;20032;-73
2022/06/03 10:05:35;;;;;;;1.13;1.13;;;29.60;47.30;;;;;;5035093;28;20030;-74
2022/06/03 10:08:08;;;;;;;3.38;1.67;;;30.10;46.50;;;;;;5036366;28;20037;-74
2022/06/03 10:13:19;;;;;;;2.40;1.40;;;29.90;47.50;;;;;;5036351;28;20036;-74
2022/06/03 10:15:53;;;;;;;2.63;1.00;;;30.50;47.10;;;;;;5036261;28;20041;-74
2022/06/03 10:18:31;;;;;;;1.50;1.40;;;30.90;46.60;;;;;;5036279;28;20075;-74
2022/06/03 10:21:19;;;;;;;1.50;1.40;;;31.20;45.30;;;;;;5035177;28;20381;-74
2022/06/03 10:23:48;;;;;;;2.87;1.37;;;31.10;45.90;;;;;;5035974;28;20100;-74
2022/06/03 10:26:28;;;;;;;1.95;1.38;;;31.60;45.70;;;;;;5036156;28;20033;-74
2022/06/03 10:28:56;;;;;;;1.88;1.63;;;31.40;45.40;;;;;;5035924;28;20037;-74
2022/06/03 10:31:30;;;;;;;3.55;1.77;;;31.00;46.30;;;;;;5035904;28;20060;-74
2022/06/03 10:34:08;;;;;;;1.55;1.45;;;30.30;47.50;;;;;;5035999;28;20033;-74
2022/06/03 10:36:42;;;;;;;1.60;1.50;;;30.70;47.50;;;;;;5035937;28;20032;-74
2022/06/03 10:39:09;;;;;;;2.50;1.40;;;30.80;47.00;;;;;;5035967;28;20041;-74
2022/06/03 10:41:44;;;;;;;2.33;1.60;;;30.40;48.10;;;;;;5034737;28;20033;-74
2022/06/03 10:44:14;;;;;;;1.40;1.30;;;30.20;48.00;;;;;;5035726;28;20109;-74
2022/06/03 10:46:56;;;;;;;5.30;1.67;;;29.90;49.70;;;;;;5034404;28;20025;-74
2022/06/03 10:49:23;;;;;;;3.10;1.50;;;30.20;49.80;;;;;;5035784;28;20033;-74
2022/06/03 11:02:52;;;;;;;1.95;1.50;;;30.20;52.00;;;;;;5035333;28;20036;-74
2022/06/03 11:05:22;;;;;;;3.03;1.40;;;30.60;50.90;;;;;;5034014;28;20025;-74
2022/06/03 11:08:06;;;;;;;4.30;1.50;;;30.30;50.80;;;;;;5035102;28;20053;-74
2022/06/03 11:10:45;;;;;;;3.95;1.40;;;30.00;52.00;;;;;;5035124;28;20053;-75
2022/06/03 11:13:14;;;;;;;1.45;1.20;;;30.40;52.30;;;;;;5034312;28;20079;-74
2022/06/03 11:15:45;;;;;;;3.20;1.58;;;30.80;49.60;;;;;;5034039;28;20026;-74
2022/06/03 11:18:14;;;;;;;2.70;1.75;;;30.00;51.90;;;;;;5033752;28;20393;-74
2022/06/03 11:20:40;;;;;;;;;;;30.00;52.20;;;;;;5034052;28;20116;-73
2022/06/03 11:23:08;;;;;;;2.80;1.30;;;29.90;51.50;;;;;;5050260;28;19912;-74
2022/06/03 11:25:40;;;;;;;3.55;1.42;;;30.30;51.00;;;;;;5034751;28;20350;-74
2022/06/03 11:28:11;;;;;;;2.47;1.40;;;30.80;50.40;;;;;;5033709;28;20088;-74
2022/06/03 11:30:52;;;;;;;1.63;1.45;;;31.10;50.40;;;;;;5034331;28;20073;-74
2022/06/03 11:33:28;;;;;;;10.25;1.60;;;32.20;49.30;;;;;;5034740;28;20025;-74
2022/06/03 11:35:59;;;;;;;3.35;1.63;;;32.70;48.40;;;;;;5034964;28;20124;-74
2022/06/03 11:38:48;;;;;;;4.15;1.92;;;32.50;46.90;;;;;;5034991;28;20035;-74
2022/06/03 11:41:41;;;;;;;2.35;1.45;;;31.50;48.30;;;;;;5034692;28;20048;-74
2022/06/03 11:44:25;;;;;;;4.32;1.98;;;31.00;49.70;;;;;;5033775;28;20022;-74
2022/06/03 11:47:03;;;;;;;1.85;1.40;;;31.30;49.30;;;;;;5034420;28;20028;-74
2022/06/03 11:49:30;;;;;;;3.15;1.52;;;31.10;48.10;;;;;;5034165;28;20397;-74
2022/06/03 11:51:55;;;;;;;4.38;1.63;;;30.80;50.00;;;;;;5034066;28;20445;-74
2022/06/03 11:54:25;;;;;;;3.80;1.58;;;31.20;50.20;;;;;;5034108;28;20064;-74
2022/06/03 11:56:51;;;;;;;3.60;1.35;;;31.30;48.90;;;;;;5032778;28;20026;-74
2022/06/03 11:59:35;;;;;;;1.48;1.25;;;31.60;47.80;;;;;;5034519;28;20055;-74
2022/06/03 12:02:08;;;;;;;1.20;1.10;;;32.10;49.20;;;;;;5033292;28;20099;-74
2022/06/03 12:04:55;;;;;;;1.77;1.10;;;33.10;48.20;;;;;;5033221;28;20021;-74
2022/06/03 12:07:45;;;;;;;9.88;1.83;;;33.50;46.40;;;;;;5034323;28;20108;-74
2022/06/03 12:10:41;;;;;;;2.45;1.20;;;32.50;46.30;;;;;;5034309;28;20155;-74
2022/06/03 12:13:26;;;;;;;1.58;1.40;;;31.30;48.10;;;;;;5032541;28;20025;-75
2022/06/03 12:15:58;;;;;;;1.63;1.08;;;32.30;48.60;;;;;;5033215;28;20427;-74
2022/06/03 12:18:36;;;;;;;2.95;1.35;;;33.20;47.40;;;;;;5033812;28;20060;-75
2022/06/03 12:21:38;;;;;;;3.25;1.45;;;34.20;46.90;;;;;;5034215;28;20064;-75
2022/06/03 12:24:38;;;;;;;3.30;1.42;;;35.00;45.10;;;;;;5033524;28;20480;-75
2022/06/03 12:27:15;;;;;;;2.78;1.33;;;33.50;45.50;;;;;;5033886;28;20381;-74
2022/06/03 12:29:55;;;;;;;1.83;1.10;;;31.70;47.20;;;;;;5033650;28;20029;-74
2022/06/03 12:32:30;;;;;;;2.20;1.40;;;31.50;49.00;;;;;;5032621;28;20084;-74
2022/06/03 12:35:44;;;;;;;2.42;1.23;;;31.90;49.20;;;;;;5033889;28;20040;-74
2022/06/03 12:38:22;;;;;;;1.70;1.50;;;32.50;48.60;;;;;;4980922;28;20125;-74
2022/06/03 12:40:56;;;;;;;5.65;1.60;;;33.30;47.60;;;;;;5034340;28;20022;-75
2022/06/03 12:43:28;;;;;;;1.33;0.93;;;33.80;47.10;;;;;;5033307;28;20112;-74
2022/06/03 12:46:06;;;;;;;3.80;1.40;;;33.60;46.00;;;;;;5032602;28;20068;-74
2022/06/03 12:48:35;;;;;;;;;;;32.40;46.80;;;;;;5032721;28;20041;-74
2022/06/03 12:51:21;;;;;;;1.33;1.23;;;32.00;48.50;;;;;;5033579;28;19996;-76
2022/06/03 12:53:48;;;;;;;12.52;2.42;;;32.50;47.70;;;;;;5033343;28;20420;-74
2022/06/03 12:56:33;;;;;;;1.23;1.23;;;32.30;48.30;;;;;;5033612;28;20022;-76
2022/06/03 12:58:59;;;;;;;2.63;1.23;;;32.60;48.20;;;;;;5033342;28;20025;-77
2022/06/03 13:01:48;;;;;;;3.65;1.50;;;32.00;49.00;;;;;;5033339;28;20037;-76
2022/06/03 13:04:42;;;;;;;1.45;1.02;;;31.40;50.00;;;;;;5032603;28;20029;-75
2022/06/03 13:07:32;;;;;;;1.27;1.17;;;31.30;50.40;;;;;;5033283;28;20060;-77
2022/06/03 13:10:04;;;;;;;1.23;1.23;;;31.80;51.10;;;;;;5032317;28;20030;-75
2022/06/03 13:12:32;;;;;;;1.83;1.30;;;32.10;48.90;;;;;;5033587;28;20026;-75
2022/06/03 13:15:20;;;;;;;5.15;1.73;;;31.70;49.30;;;;;;5032042;28;20409;-75
2022/06/03 13:17:55;;;;;;;;;;;32.30;49.20;;;;;;5022883;28;20088;-76
2022/06/03 13:20:45;;;;;;;1.40;1.02;;;33.20;48.90;;;;;;5048834;28;19905;-75
2022/06/03 13:23:32;;;;;;;2.45;1.15;;;33.50;46.90;;;;;;5032113;28;20032;-75
2022/06/03 13:26:25;;;;;;;2.85;1.40;;;32.60;48.20;;;;;;5033618;28;20072;-75
2022/06/03 13:28:57;;;;;;;1.40;1.30;;;32.00;48.80;;;;;;5014080;28;20126;-76
2022/06/03 13:31:27;;;;;;;2.22;1.20;;;32.30;48.90;;;;;;5033417;28;20064;-76
2022/06/03 13:34:08;;;;;;;1.05;1.05;;;31.80;49.10;;;;;;5033304;28;20152;-74
2022/06/03 13:36:49;;;;;;;1.45;1.23;;;31.70;49.30;;;;;;5036132;28;20021;-75
2022/06/03 13:39:54;;;;;;;1.90;1.80;;;31.90;49.10;;;;;;5035686;28;20457;-75
2022/06/03 13:45:21;;;;;;;2.45;1.40;;;31.30;49.50;;;;;;5036671;28;20112;-74
2022/06/03 13:47:50;;;;;;;1.40;1.17;;;31.00;50.70;;;;;;5035635;28;20021;-76
2022/06/03 13:50:18;;;;;;;1.30;1.27;;;31.10;50.20;;;;;;5036771;28;20079;-74
2022/06/03 13:52:47;;;;;;;1.02;1.00;;;31.00;51.00;;;;;;5035447;28;20116;-76
2022/06/03 13:55:21;;;;;;;1.70;1.30;;;31.90;49.90;;;;;;5035174;28;20037;-75
2022/06/03 15:25:05;;;;;;;3.40;1.90;;;29.20;57.20;;;;;;4987576;23;20058;-64
2022/06/03 15:27:36;;;;;;;1.67;1.60;;;29.10;58.10;;;;;;4903146;29;20093;-64
2022/06/03 15:30:26;;;;;;;2.47;1.85;;;29.30;58.90;;;;;;4956690;29;20050;-68
2022/06/03 15:32:53;;;;;;;1.80;1.70;;;29.40;57.00;;;;;;4956493;29;20027;-67
2022/06/03 15:35:37;;;;;;;2.90;1.88;;;29.30;58.00;;;;;;4956635;29;20028;-66
2022/06/03 15:38:13;;;;;;;3.13;2.10;;;29.50;58.20;;;;;;4956747;29;20023;-67
2022/06/03 15:40:39;;;;;;;1.60;1.50;;;29.80;57.70;;;;;;4939455;29;20530;-70
2022/06/03 15:43:23;;;;;;;2.15;1.55;;;29.30;57.10;;;;;;4956949;29;20031;-75
2022/06/03 15:45:50;;;;;;;4.35;1.85;;;28.80;58.60;;;;;;4939278;29;20086;-66
2022/06/03 15:48:27;;;;;;;3.85;1.98;;;28.50;59.00;;;;;;4956266;29;20027;-73
2022/06/03 15:51:07;;;;;;;2.13;1.70;;;28.10;60.30;;;;;;4956077;29;20036;-72
2022/06/03 15:53:36;;;;;;;1.70;1.60;;;27.90;60.90;;;;;;4939049;29;20082;-72
2022/06/03 15:56:42;;;;;;;3.92;1.90;;;27.80;61.00;;;;;;4956358;29;20027;-72
2022/06/03 15:59:33;;;;;;;4.90;2.22;;;27.90;60.80;;;;;;4939153;29;20035;-73